Prisco Udokan — 5BSM2 — position and weather

sailwx.info

Track history (hours):
 
Tides and Currents Weather Stations Pressure Air Temp Water Temp Dewpoint Dewpoint Depression Visibility Wind Speed Wind Dir Waves Ship Positions

Prisco Udokan

Last reported at 2017-Oct-08 21:05 UTC. Time now 2017-Oct-18 15:24 UTC.
Position N 23°24' W 130°03'.
Warning: this ship's position is 9 days out of date.

Length 190 m; draft 6.6 m.

Type: Cargo ship. MMSI: 212923000.

Date/timePositionNaut miles runAvg speedWind from/ knotsBaromVisibWave heightAir tempDewpointWater temp
2017-Oct-08 21:05N 23°24' W 130°03'111.0
2017-Oct-08 21:00N 23°25' W 130°03'1411.0
2017-Oct-08 19:42N 23°34' W 129°50'1910.9
2017-Oct-08 17:57N 23°45' W 129°33'711.0
2017-Oct-08 17:17N 23°49' W 129°27'511.1
2017-Oct-08 16:52N 23°52' W 129°23'411.1
2017-Oct-08 16:30N 23°54' W 129°19'1011.2
2017-Oct-08 15:34N 24°01' W 129°10'110.8
2017-Oct-08 15:30N 24°01' W 129°09'611.4
2017-Oct-08 15:00N 24°04' W 129°04'611.4
2017-Oct-08 14:30N 24°08' W 128°59'711.4
2017-Oct-08 13:52N 24°12' W 128°53'411.4
2017-Oct-08 13:30N 24°14' W 128°49'611.2
2017-Oct-08 12:59N 24°18' W 128°44'511.3
2017-Oct-08 12:30N 24°21' W 128°39'611.3
2017-Oct-08 11:57N 24°25' W 128°34'1111.5
2017-Oct-08 11:01N 24°31' W 128°24'012.1
2017-Oct-08 11:00N 24°31' W 128°24'611.7
2017-Oct-08 10:30N 24°35' W 128°19'811.7
2017-Oct-08 09:50N 24°40' W 128°12'411.7
2017-Oct-08 09:29N 24°42' W 128°09'811.8
2017-Oct-08 08:50N 24°47' W 128°02'411.6
2017-Oct-08 08:30N 24°49' W 127°58'611.4
2017-Oct-08 07:59N 24°53' W 127°53'21311.7
2017-Oct-07 13:43N 26°60' W 124°43'311.8
2017-Oct-07 13:30N 27°01' W 124°40'1711.9
2017-Oct-07 12:04N 27°11' W 124°25'6411.9
2017-Oct-07 06:42N 27°50' W 123°27'211.8
2017-Oct-07 06:30N 27°51' W 123°25'3511.8
2017-Oct-07 03:29N 28°12' W 122°52'611.7
2017-Oct-07 03:00N 28°15' W 122°47'6211.5
2017-Oct-06 21:33N 28°53' W 121°50'111.5
2017-Oct-06 21:30N 28°53' W 121°50'611.4
2017-Oct-06 21:00N 28°56' W 121°44'711.4
2017-Oct-06 20:25N 29°00' W 121°38'511.5
2017-Oct-06 19:59N 29°03' W 121°34'2211.4
2017-Oct-06 18:05N 29°16' W 121°14'111.8
2017-Oct-06 18:00N 29°17' W 121°13'611.5
2017-Oct-06 17:30N 29°20' W 121°08'611.6
2017-Oct-06 17:00N 29°24' W 121°02'611.5
2017-Oct-06 16:29N 29°27' W 120°57'611.6
2017-Oct-06 15:59N 29°31' W 120°51'611.7
2017-Oct-06 15:29N 29°34' W 120°46'611.9
2017-Oct-06 15:00N 29°38' W 120°41'611.8
2017-Oct-06 14:30N 29°41' W 120°35'611.6
2017-Oct-06 14:00N 29°45' W 120°30'611.6
2017-Oct-06 13:30N 29°48' W 120°25'611.5
2017-Oct-06 13:00N 29°51' W 120°19'611.5
2017-Oct-06 12:27N 29°55' W 120°13'511.6
2017-Oct-06 12:00N 29°58' W 120°09'611.6
2017-Oct-06 11:30N 30°02' W 120°03'5411.9
2017-Oct-06 07:01N 30°34' W 119°13'311.9
2017-Oct-06 06:46N 30°35' W 119°11'511.8
2017-Oct-06 06:19N 30°38' W 119°06'2411.9
2017-Oct-06 04:15N 30°53' W 118°43'311.9
2017-Oct-06 04:00N 30°55' W 118°40'611.9
2017-Oct-06 03:30N 30°58' W 118°34'611.3
2017-Oct-06 03:00N 31°03' W 118°30'612.0
2017-Oct-06 02:30N 31°09' W 118°28'611.8
2017-Oct-06 02:00N 31°14' W 118°26'611.7
2017-Oct-06 01:30N 31°20' W 118°23'611.6
2017-Oct-06 01:00N 31°25' W 118°21'611.6
2017-Oct-06 00:30N 31°30' W 118°19'611.6
2017-Oct-06 00:00N 31°36' W 118°16'611.4
2017-Oct-05 23:30N 31°41' W 118°14'611.1
2017-Oct-05 23:00N 31°46' W 118°11'611.3
2017-Oct-05 22:30N 31°52' W 118°09'611.7
2017-Oct-05 22:00N 31°57' W 118°06'611.5
2017-Oct-05 21:30N 32°02' W 118°04'611.8
2017-Oct-05 21:00N 32°08' W 118°01'611.9
2017-Oct-05 20:30N 32°13' W 117°59'611.6
2017-Oct-05 20:00N 32°19' W 117°57'611.6
2017-Oct-05 19:30N 32°24' W 117°54'611.4
2017-Oct-05 19:00N 32°30' W 117°52'611.3
2017-Oct-05 18:30N 32°35' W 117°50'510.6
2017-Oct-05 18:00N 32°40' W 117°51'611.3
2017-Oct-05 17:30N 32°46' W 117°53'611.3
2017-Oct-05 17:00N 32°51' W 117°55'1711.3
2017-Oct-05 15:30N 33°07' W 118°02'611.4
2017-Oct-05 15:00N 33°12' W 118°04'611.5
2017-Oct-05 14:30N 33°18' W 118°06'611.6
2017-Oct-05 14:00N 33°23' W 118°08'611.4
2017-Oct-05 13:30N 33°29' W 118°10'611.1
2017-Oct-05 13:00N 33°34' W 118°13'5 9.3
2017-Oct-05 12:30N 33°38' W 118°12'3 6.8
2017-Oct-05 12:00N 33°42' W 118°11'2 4.1
2017-Oct-05 11:30N 33°44' W 118°12'0 0.2
2017-Oct-05 10:58N 33°44' W 118°12'0 0.0
2017-Oct-05 10:28N 33°44' W 118°12'0 0.1
2017-Oct-05 09:58N 33°44' W 118°12'0 0.1
2017-Oct-05 09:28N 33°44' W 118°12'0 0.0
2017-Oct-05 08:58N 33°44' W 118°12'0 0.0
2017-Oct-05 08:28N 33°44' W 118°12'0 0.0
2017-Oct-05 07:52N 33°44' W 118°12'0 0.0
2017-Oct-05 07:28N 33°44' W 118°12'0 0.0
2017-Oct-05 06:58N 33°44' W 118°12'0 0.1
2017-Oct-05 06:28N 33°44' W 118°12'0 0.1
2017-Oct-05 05:58N 33°44' W 118°12'0 0.1
2017-Oct-05 05:28N 33°44' W 118°12'0 0.0
2017-Oct-05 04:58N 33°44' W 118°12'0 0.1
2017-Oct-05 04:28N 33°44' W 118°12'0 0.1
2017-Oct-05 03:58N 33°44' W 118°12'0 0.1
2017-Oct-05 03:28N 33°44' W 118°12'1 2.1
2017-Oct-05 03:00N 33°45' W 118°12'0 0.1
2017-Oct-05 02:25N 33°45' W 118°12'0 0.0
2017-Oct-05 01:52N 33°45' W 118°12'0 0.0
2017-Oct-05 01:28N 33°45' W 118°12'0 0.0
2017-Oct-05 00:58N 33°45' W 118°12'0 0.0
2017-Oct-05 00:28N 33°45' W 118°12'0 0.0
2017-Oct-04 23:40N 33°45' W 118°12'0 0.0
2017-Oct-04 23:10N 33°45' W 118°12'0 0.0
2017-Oct-04 22:52N 33°45' W 118°12'0 0.0
2017-Oct-04 22:28N 33°45' W 118°12'0 0.0
2017-Oct-04 21:58N 33°45' W 118°12'0 0.0
2017-Oct-04 21:28N 33°45' W 118°12'0 0.0
2017-Oct-04 20:58N 33°45' W 118°12'0 0.0
2017-Oct-04 20:28N 33°45' W 118°12'0 0.0
2017-Oct-04 19:58N 33°45' W 118°12'0 0.0
2017-Oct-04 19:22N 33°45' W 118°12'0 0.0
2017-Oct-04 18:52N 33°45' W 118°12'0 0.0
2017-Oct-04 18:28N 33°45' W 118°12'0 0.0
2017-Oct-04 17:58N 33°45' W 118°12'  
Track history (hours):
 
Tides and Currents Weather Stations Pressure Air Temp Water Temp Dewpoint Dewpoint Depression Visibility Wind Speed Wind Dir Waves Ship Positions

Prisco Udokan

Last reported at 2017-Oct-08 21:05 UTC. Time now 2017-Oct-18 15:24 UTC.
Position N 23°24' W 130°03'.
Warning: this ship's position is 9 days out of date.

Length 190 m; draft 6.6 m.

Type: Cargo ship. MMSI: 212923000.

Date/timePositionNaut miles runAvg speedWind from/ knotsBaromVisibWave heightAir tempDewpointWater temp
2017-Oct-08 21:05N 23°24' W 130°03'111.0
2017-Oct-08 21:00N 23°25' W 130°03'1411.0
2017-Oct-08 19:42N 23°34' W 129°50'1910.9
2017-Oct-08 17:57N 23°45' W 129°33'711.0
2017-Oct-08 17:17N 23°49' W 129°27'511.1
2017-Oct-08 16:52N 23°52' W 129°23'411.1
2017-Oct-08 16:30N 23°54' W 129°19'1011.2
2017-Oct-08 15:34N 24°01' W 129°10'110.8
2017-Oct-08 15:30N 24°01' W 129°09'611.4
2017-Oct-08 15:00N 24°04' W 129°04'611.4
2017-Oct-08 14:30N 24°08' W 128°59'711.4
2017-Oct-08 13:52N 24°12' W 128°53'411.4
2017-Oct-08 13:30N 24°14' W 128°49'611.2
2017-Oct-08 12:59N 24°18' W 128°44'511.3
2017-Oct-08 12:30N 24°21' W 128°39'611.3
2017-Oct-08 11:57N 24°25' W 128°34'1111.5
2017-Oct-08 11:01N 24°31' W 128°24'012.1
2017-Oct-08 11:00N 24°31' W 128°24'611.7
2017-Oct-08 10:30N 24°35' W 128°19'811.7
2017-Oct-08 09:50N 24°40' W 128°12'411.7
2017-Oct-08 09:29N 24°42' W 128°09'811.8
2017-Oct-08 08:50N 24°47' W 128°02'411.6
2017-Oct-08 08:30N 24°49' W 127°58'611.4
2017-Oct-08 07:59N 24°53' W 127°53'21311.7
2017-Oct-07 13:43N 26°60' W 124°43'311.8
2017-Oct-07 13:30N 27°01' W 124°40'1711.9
2017-Oct-07 12:04N 27°11' W 124°25'6411.9
2017-Oct-07 06:42N 27°50' W 123°27'211.8
2017-Oct-07 06:30N 27°51' W 123°25'3511.8
2017-Oct-07 03:29N 28°12' W 122°52'611.7
2017-Oct-07 03:00N 28°15' W 122°47'6211.5
2017-Oct-06 21:33N 28°53' W 121°50'111.5
2017-Oct-06 21:30N 28°53' W 121°50'611.4
2017-Oct-06 21:00N 28°56' W 121°44'711.4
2017-Oct-06 20:25N 29°00' W 121°38'511.5
2017-Oct-06 19:59N 29°03' W 121°34'2211.4
2017-Oct-06 18:05N 29°16' W 121°14'111.8
2017-Oct-06 18:00N 29°17' W 121°13'611.5
2017-Oct-06 17:30N 29°20' W 121°08'611.6
2017-Oct-06 17:00N 29°24' W 121°02'611.5
2017-Oct-06 16:29N 29°27' W 120°57'611.6
2017-Oct-06 15:59N 29°31' W 120°51'611.7
2017-Oct-06 15:29N 29°34' W 120°46'611.9
2017-Oct-06 15:00N 29°38' W 120°41'611.8
2017-Oct-06 14:30N 29°41' W 120°35'611.6
2017-Oct-06 14:00N 29°45' W 120°30'611.6
2017-Oct-06 13:30N 29°48' W 120°25'611.5
2017-Oct-06 13:00N 29°51' W 120°19'611.5
2017-Oct-06 12:27N 29°55' W 120°13'511.6
2017-Oct-06 12:00N 29°58' W 120°09'611.6
2017-Oct-06 11:30N 30°02' W 120°03'5411.9
2017-Oct-06 07:01N 30°34' W 119°13'311.9
2017-Oct-06 06:46N 30°35' W 119°11'511.8
2017-Oct-06 06:19N 30°38' W 119°06'2411.9
2017-Oct-06 04:15N 30°53' W 118°43'311.9
2017-Oct-06 04:00N 30°55' W 118°40'611.9
2017-Oct-06 03:30N 30°58' W 118°34'611.3
2017-Oct-06 03:00N 31°03' W 118°30'612.0
2017-Oct-06 02:30N 31°09' W 118°28'611.8
2017-Oct-06 02:00N 31°14' W 118°26'611.7
2017-Oct-06 01:30N 31°20' W 118°23'611.6
2017-Oct-06 01:00N 31°25' W 118°21'611.6
2017-Oct-06 00:30N 31°30' W 118°19'611.6
2017-Oct-06 00:00N 31°36' W 118°16'611.4
2017-Oct-05 23:30N 31°41' W 118°14'611.1
2017-Oct-05 23:00N 31°46' W 118°11'611.3
2017-Oct-05 22:30N 31°52' W 118°09'611.7
2017-Oct-05 22:00N 31°57' W 118°06'611.5
2017-Oct-05 21:30N 32°02' W 118°04'611.8
2017-Oct-05 21:00N 32°08' W 118°01'611.9
2017-Oct-05 20:30N 32°13' W 117°59'611.6
2017-Oct-05 20:00N 32°19' W 117°57'611.6
2017-Oct-05 19:30N 32°24' W 117°54'611.4
2017-Oct-05 19:00N 32°30' W 117°52'611.3
2017-Oct-05 18:30N 32°35' W 117°50'510.6
2017-Oct-05 18:00N 32°40' W 117°51'611.3
2017-Oct-05 17:30N 32°46' W 117°53'611.3
2017-Oct-05 17:00N 32°51' W 117°55'1711.3
2017-Oct-05 15:30N 33°07' W 118°02'611.4
2017-Oct-05 15:00N 33°12' W 118°04'611.5
2017-Oct-05 14:30N 33°18' W 118°06'611.6
2017-Oct-05 14:00N 33°23' W 118°08'611.4
2017-Oct-05 13:30N 33°29' W 118°10'611.1
2017-Oct-05 13:00N 33°34' W 118°13'5 9.3
2017-Oct-05 12:30N 33°38' W 118°12'3 6.8
2017-Oct-05 12:00N 33°42' W 118°11'2 4.1
2017-Oct-05 11:30N 33°44' W 118°12'0 0.2
2017-Oct-05 10:58N 33°44' W 118°12'0 0.0
2017-Oct-05 10:28N 33°44' W 118°12'0 0.1
2017-Oct-05 09:58N 33°44' W 118°12'0 0.1
2017-Oct-05 09:28N 33°44' W 118°12'0 0.0
2017-Oct-05 08:58N 33°44' W 118°12'0 0.0
2017-Oct-05 08:28N 33°44' W 118°12'0 0.0
2017-Oct-05 07:52N 33°44' W 118°12'0 0.0
2017-Oct-05 07:28N 33°44' W 118°12'0 0.0
2017-Oct-05 06:58N 33°44' W 118°12'0 0.1
2017-Oct-05 06:28N 33°44' W 118°12'0 0.1
2017-Oct-05 05:58N 33°44' W 118°12'0 0.1
2017-Oct-05 05:28N 33°44' W 118°12'0 0.0
2017-Oct-05 04:58N 33°44' W 118°12'0 0.1
2017-Oct-05 04:28N 33°44' W 118°12'0 0.1
2017-Oct-05 03:58N 33°44' W 118°12'0 0.1
2017-Oct-05 03:28N 33°44' W 118°12'1 2.1
2017-Oct-05 03:00N 33°45' W 118°12'0 0.1
2017-Oct-05 02:25N 33°45' W 118°12'0 0.0
2017-Oct-05 01:52N 33°45' W 118°12'0 0.0
2017-Oct-05 01:28N 33°45' W 118°12'0 0.0
2017-Oct-05 00:58N 33°45' W 118°12'0 0.0
2017-Oct-05 00:28N 33°45' W 118°12'0 0.0
2017-Oct-04 23:40N 33°45' W 118°12'0 0.0
2017-Oct-04 23:10N 33°45' W 118°12'0 0.0
2017-Oct-04 22:52N 33°45' W 118°12'0 0.0
2017-Oct-04 22:28N 33°45' W 118°12'0 0.0
2017-Oct-04 21:58N 33°45' W 118°12'0 0.0
2017-Oct-04 21:28N 33°45' W 118°12'0 0.0
2017-Oct-04 20:58N 33°45' W 118°12'0 0.0
2017-Oct-04 20:28N 33°45' W 118°12'0 0.0
2017-Oct-04 19:58N 33°45' W 118°12'0 0.0
2017-Oct-04 19:22N 33°45' W 118°12'0 0.0
2017-Oct-04 18:52N 33°45' W 118°12'0 0.0
2017-Oct-04 18:28N 33°45' W 118°12'0 0.0
2017-Oct-04 17:58N 33°45' W 118°12'  

Dump ship's entire track history